sensor_id;sensor_type;location;lat;lon;timestamp;pressure;altitude;pressure_sealevel;temperature;humidity
50057;BME280;36875;49.468;11.200;2023-03-22T00:01:16;97762.78;;;20.56;41.95
50057;BME280;36875;49.468;11.200;2023-03-22T00:03:44;97754.59;;;20.56;42.10
50057;BME280;36875;49.468;11.200;2023-03-22T00:06:11;97752.97;;;20.55;42.05
50057;BME280;36875;49.468;11.200;2023-03-22T00:08:37;97747.84;;;20.53;42.18
50057;BME280;36875;49.468;11.200;2023-03-22T00:11:03;97747.34;;;20.51;41.79
50057;BME280;36875;49.468;11.200;2023-03-22T00:13:30;97748.94;;;20.52;41.96
50057;BME280;36875;49.468;11.200;2023-03-22T00:15:56;97737.22;;;20.52;41.66
50057;BME280;36875;49.468;11.200;2023-03-22T00:18:22;97745.72;;;20.50;42.01
50057;BME280;36875;49.468;11.200;2023-03-22T00:20:48;97737.84;;;20.49;41.87
50057;BME280;36875;49.468;11.200;2023-03-22T00:23:15;97740.56;;;20.49;42.01
50057;BME280;36875;49.468;11.200;2023-03-22T00:25:42;97744.09;;;20.49;41.66
50057;BME280;36875;49.468;11.200;2023-03-22T00:28:08;97741.72;;;20.48;41.80
50057;BME280;36875;49.468;11.200;2023-03-22T00:30:33;97740.88;;;20.47;41.98
50057;BME280;36875;49.468;11.200;2023-03-22T00:32:59;97735.41;;;20.47;41.92
50057;BME280;36875;49.468;11.200;2023-03-22T00:35:24;97737.66;;;20.45;41.94
50057;BME280;36875;49.468;11.200;2023-03-22T00:37:49;97732.19;;;20.45;41.75
50057;BME280;36875;49.468;11.200;2023-03-22T00:40:17;97730.13;;;20.42;41.84
50057;BME280;36875;49.468;11.200;2023-03-22T00:42:42;97726.25;;;20.43;41.82
50057;BME280;36875;49.468;11.200;2023-03-22T00:45:10;97727.72;;;20.40;41.62
50057;BME280;36875;49.468;11.200;2023-03-22T00:47:36;97725.78;;;20.41;41.92
50057;BME280;36875;49.468;11.200;2023-03-22T00:50:02;97730.44;;;20.40;41.79
50057;BME280;36875;49.468;11.200;2023-03-22T00:52:28;97723.34;;;20.39;41.88
50057;BME280;36875;49.468;11.200;2023-03-22T00:54:54;97718.19;;;20.38;41.75
50057;BME280;36875;49.468;11.200;2023-03-22T00:57:21;97725.28;;;20.39;41.71
50057;BME280;36875;49.468;11.200;2023-03-22T00:59:46;97719.34;;;20.37;41.65
50057;BME280;36875;49.468;11.200;2023-03-22T01:02:12;97728.34;;;20.37;41.68
50057;BME280;36875;49.468;11.200;2023-03-22T01:04:38;97718.50;;;20.36;41.84
50057;BME280;36875;49.468;11.200;2023-03-22T01:07:04;97721.25;;;20.36;41.49
50057;BME280;36875;49.468;11.200;2023-03-22T01:09:32;97725.44;;;20.34;41.57
50057;BME280;36875;49.468;11.200;2023-03-22T01:12:00;97722.69;;;20.34;41.65
50057;BME280;36875;49.468;11.200;2023-03-22T01:14:27;97717.22;;;20.34;41.90
50057;BME280;36875;49.468;11.200;2023-03-22T01:16:53;97718.38;;;20.33;41.48
50057;BME280;36875;49.468;11.200;2023-03-22T01:19:21;97713.22;;;20.31;41.79
50057;BME280;36875;49.468;11.200;2023-03-22T01:21:47;97715.94;;;20.31;41.75
50057;BME280;36875;49.468;11.200;2023-03-22T01:24:12;97706.94;;;20.31;41.83
50057;BME280;36875;49.468;11.200;2023-03-22T01:26:38;97708.84;;;20.30;41.83
50057;BME280;36875;49.468;11.200;2023-03-22T01:29:04;97705.16;;;20.26;41.55
50057;BME280;36875;49.468;11.200;2023-03-22T01:31:31;97705.66;;;20.28;41.77
50057;BME280;36875;49.468;11.200;2023-03-22T01:33:56;97706.44;;;20.29;41.66
50057;BME280;36875;49.468;11.200;2023-03-22T01:36:22;97697.75;;;20.27;41.95
50057;BME280;36875;49.468;11.200;2023-03-22T01:38:47;97696.16;;;20.26;41.63
50057;BME280;36875;49.468;11.200;2023-03-22T01:41:13;97696.16;;;20.26;41.65
50057;BME280;36875;49.468;11.200;2023-03-22T01:43:39;97696.47;;;20.24;41.50
50057;BME280;36875;49.468;11.200;2023-03-22T01:46:05;97700.00;;;20.25;41.34
50057;BME280;36875;49.468;11.200;2023-03-22T01:48:33;97703.06;;;20.23;41.58
50057;BME280;36875;49.468;11.200;2023-03-22T01:51:06;97698.38;;;20.23;41.68
50057;BME280;36875;49.468;11.200;2023-03-22T01:53:36;97699.53;;;20.22;41.35
50057;BME280;36875;49.468;11.200;2023-03-22T01:56:03;97698.25;;;20.20;41.57
50057;BME280;36875;49.468;11.200;2023-03-22T01:58:31;97697.41;;;20.19;41.37
50057;BME280;36875;49.468;11.200;2023-03-22T02:00:58;97690.84;;;20.20;41.38
50057;BME280;36875;49.468;11.200;2023-03-22T02:03:31;97681.34;;;20.18;41.59
50057;BME280;36875;49.468;11.200;2023-03-22T02:05:59;97673.97;;;20.18;41.43
50057;BME280;36875;49.468;11.200;2023-03-22T02:08:25;97668.81;;;20.17;41.58
50057;BME280;36875;49.468;11.200;2023-03-22T02:10:51;97676.53;;;20.15;41.40
50057;BME280;36875;49.468;11.200;2023-03-22T02:13:28;97681.69;;;20.16;41.45
50057;BME280;36875;49.468;11.200;2023-03-22T02:16:12;97681.69;;;20.16;41.27
50057;BME280;36875;49.468;11.200;2023-03-22T02:18:54;97676.53;;;20.15;41.42
50057;BME280;36875;49.468;11.200;2023-03-22T02:21:37;97670.59;;;20.13;41.66
50057;BME280;36875;49.468;11.200;2023-03-22T02:24:22;97676.84;;;20.13;41.18
50057;BME280;36875;49.468;11.200;2023-03-22T02:27:14;97676.84;;;20.13;41.22
50057;BME280;36875;49.468;11.200;2023-03-22T02:29:44;97678.28;;;20.11;41.13
50057;BME280;36875;49.468;11.200;2023-03-22T02:32:41;97680.19;;;20.10;41.59
50057;BME280;36875;49.468;11.200;2023-03-22T02:35:23;97679.88;;;20.12;41.53
50057;BME280;36875;49.468;11.200;2023-03-22T02:41:07;97678.13;;;20.07;41.26
50057;BME280;36875;49.468;11.200;2023-03-22T02:43:37;97671.53;;;20.08;40.98
50057;BME280;36875;49.468;11.200;2023-03-22T02:46:08;97678.13;;;20.07;41.32
50057;BME280;36875;49.468;11.200;2023-03-22T02:48:41;97663.94;;;20.05;41.40
50057;BME280;36875;49.468;11.200;2023-03-22T02:51:12;97670.25;;;20.06;41.06
50057;BME280;36875;49.468;11.200;2023-03-22T02:53:44;97670.25;;;20.06;41.20
50057;BME280;36875;49.468;11.200;2023-03-22T02:56:14;97663.94;;;20.05;41.15
50057;BME280;36875;49.468;11.200;2023-03-22T02:58:45;97666.19;;;20.03;41.31
50057;BME280;36875;49.468;11.200;2023-03-22T03:01:17;97661.56;;;20.03;41.20
50057;BME280;36875;49.468;11.200;2023-03-22T03:03:46;97658.00;;;20.03;41.29
50057;BME280;36875;49.468;11.200;2023-03-22T03:06:17;97655.28;;;20.03;41.17
50057;BME280;36875;49.468;11.200;2023-03-22T03:08:45;97651.25;;;20.00;41.11
50057;BME280;36875;49.468;11.200;2023-03-22T03:11:13;97653.19;;;20.00;41.28
50057;BME280;36875;49.468;11.200;2023-03-22T03:13:38;97645.78;;;20.00;41.16
50057;BME280;36875;49.468;11.200;2023-03-22T03:16:05;97650.47;;;20.00;41.05
50057;BME280;36875;49.468;11.200;2023-03-22T03:18:40;97653.19;;;20.00;41.09
50057;BME280;36875;49.468;11.200;2023-03-22T03:21:19;97655.94;;;20.00;40.96
50057;BME280;36875;49.468;11.200;2023-03-22T03:23:52;97652.72;;;19.98;40.98
50057;BME280;36875;49.468;11.200;2023-03-22T03:26:25;97657.34;;;19.97;41.38
50057;BME280;36875;49.468;11.200;2023-03-22T03:28:57;97654.63;;;19.97;41.19
50057;BME280;36875;49.468;11.200;2023-03-22T03:31:29;97656.56;;;19.97;41.07
50057;BME280;36875;49.468;11.200;2023-03-22T03:34:04;97661.53;;;19.95;41.12
50057;BME280;36875;49.468;11.200;2023-03-22T03:36:34;97654.13;;;19.95;41.33
50057;BME280;36875;49.468;11.200;2023-03-22T03:39:02;97658.78;;;19.95;41.25
50057;BME280;36875;49.468;11.200;2023-03-22T03:41:31;97665.38;;;19.94;41.17
50057;BME280;36875;49.468;11.200;2023-03-22T03:43:57;97667.31;;;19.93;40.94
50057;BME280;36875;49.468;11.200;2023-03-22T03:46:23;97661.84;;;19.93;41.13
50057;BME280;36875;49.468;11.200;2023-03-22T03:48:50;97666.50;;;19.93;40.95
50057;BME280;36875;49.468;11.200;2023-03-22T03:51:17;97666.50;;;19.93;40.95
50057;BME280;36875;49.468;11.200;2023-03-22T03:53:42;97667.63;;;19.92;40.91
50057;BME280;36875;49.468;11.200;2023-03-22T03:56:08;97664.88;;;19.92;41.04
50057;BME280;36875;49.468;11.200;2023-03-22T03:58:36;97658.44;;;19.88;41.02
50057;BME280;36875;49.468;11.200;2023-03-22T04:01:01;97661.66;;;19.90;41.08
50057;BME280;36875;49.468;11.200;2023-03-22T04:03:28;97670.66;;;19.90;41.10
50057;BME280;36875;49.468;11.200;2023-03-22T04:05:54;97662.78;;;19.89;41.26
50057;BME280;36875;49.468;11.200;2023-03-22T04:08:20;97666.31;;;19.89;40.81
50057;BME280;36875;49.468;11.200;2023-03-22T04:10:48;97662.78;;;19.89;41.00
50057;BME280;36875;49.468;11.200;2023-03-22T04:13:14;97669.06;;;19.89;40.92
50057;BME280;36875;49.468;11.200;2023-03-22T04:15:41;97672.91;;;19.88;40.98
50057;BME280;36875;49.468;11.200;2023-03-22T04:18:06;97677.06;;;19.86;40.94
50057;BME280;36875;49.468;11.200;2023-03-22T04:20:34;97673.22;;;19.87;41.04
50057;BME280;36875;49.468;11.200;2023-03-22T04:22:59;97668.88;;;19.86;40.83
50057;BME280;36875;49.468;11.200;2023-03-22T04:25:24;97666.16;;;19.86;40.85
50057;BME280;36875;49.468;11.200;2023-03-22T04:27:54;97671.63;;;19.86;40.73
50057;BME280;36875;49.468;11.200;2023-03-22T04:30:20;97674.34;;;19.86;40.68
50057;BME280;36875;49.468;11.200;2023-03-22T04:32:50;97675.47;;;19.84;40.58
50057;BME280;36875;49.468;11.200;2023-03-22T04:35:16;97675.47;;;19.84;40.76
50057;BME280;36875;49.468;11.200;2023-03-22T04:37:41;97670.00;;;19.84;40.73
50057;BME280;36875;49.468;11.200;2023-03-22T04:40:08;97677.69;;;19.82;41.06
50057;BME280;36875;49.468;11.200;2023-03-22T04:42:34;97675.78;;;19.83;40.95
50057;BME280;36875;49.468;11.200;2023-03-22T04:45:00;97671.13;;;19.83;41.00
50057;BME280;36875;49.468;11.200;2023-03-22T04:47:27;97672.25;;;19.82;40.45
50057;BME280;36875;49.468;11.200;2023-03-22T04:49:54;97672.84;;;19.79;40.83
50057;BME280;36875;49.468;11.200;2023-03-22T04:52:20;97664.66;;;19.79;40.60
50057;BME280;36875;49.468;11.200;2023-03-22T04:54:45;97667.41;;;19.79;40.81
50057;BME280;36875;49.468;11.200;2023-03-22T04:57:11;97673.38;;;19.81;40.49
50057;BME280;36875;49.468;11.200;2023-03-22T04:59:36;97667.09;;;19.81;40.54
50057;BME280;36875;49.468;11.200;2023-03-22T05:02:02;97667.41;;;19.79;40.39
50057;BME280;36875;49.468;11.200;2023-03-22T05:04:27;97667.41;;;19.79;40.48
50057;BME280;36875;49.468;11.200;2023-03-22T05:06:54;97671.28;;;19.78;40.45
50057;BME280;36875;49.468;11.200;2023-03-22T05:09:20;97670.13;;;19.79;40.46
50057;BME280;36875;49.468;11.200;2023-03-22T05:11:45;97667.75;;;19.78;40.40
50057;BME280;36875;49.468;11.200;2023-03-22T05:14:11;97671.28;;;19.78;40.35
50057;BME280;36875;49.468;11.200;2023-03-22T05:16:37;97665.81;;;19.78;40.35
50057;BME280;36875;49.468;11.200;2023-03-22T05:19:05;97671.56;;;19.77;40.65
50057;BME280;36875;49.468;11.200;2023-03-22T05:21:30;97672.38;;;19.77;40.70
50057;BME280;36875;49.468;11.200;2023-03-22T05:24:02;97663.38;;;19.77;40.50
50057;BME280;36875;49.468;11.200;2023-03-22T05:26:28;97665.00;;;19.78;40.33
50057;BME280;36875;49.468;11.200;2023-03-22T05:28:54;97667.25;;;19.76;40.44
50057;BME280;36875;49.468;11.200;2023-03-22T05:31:21;97661.44;;;19.77;40.09
50057;BME280;36875;49.468;11.200;2023-03-22T05:33:47;97665.31;;;19.76;40.66
50057;BME280;36875;49.468;11.200;2023-03-22T05:36:12;97667.56;;;19.74;40.33
50057;BME280;36875;49.468;11.200;2023-03-22T05:38:38;97663.69;;;19.75;40.55
50057;BME280;36875;49.468;11.200;2023-03-22T05:41:05;97671.88;;;19.75;40.16
50057;BME280;36875;49.468;11.200;2023-03-22T05:43:31;97659.38;;;19.74;40.53
50057;BME280;36875;49.468;11.200;2023-03-22T05:45:57;97663.69;;;19.75;40.42
50057;BME280;36875;49.468;11.200;2023-03-22T05:48:22;97657.75;;;19.73;40.18
50057;BME280;36875;49.468;11.200;2023-03-22T05:50:48;97647.94;;;19.72;40.20
50057;BME280;36875;49.468;11.200;2023-03-22T05:53:13;97655.03;;;19.73;40.13
50057;BME280;36875;49.468;11.200;2023-03-22T05:55:39;97653.09;;;19.74;40.33
50057;BME280;36875;49.468;11.200;2023-03-22T05:58:05;97650.66;;;19.72;40.43
50057;BME280;36875;49.468;11.200;2023-03-22T06:00:32;97647.94;;;19.72;40.41
50057;BME280;36875;49.468;11.200;2023-03-22T06:02:58;97649.03;;;19.71;40.34
50057;BME280;36875;49.468;11.200;2023-03-22T06:05:28;97649.03;;;19.71;40.43
50057;BME280;36875;49.468;11.200;2023-03-22T06:07:54;97646.31;;;19.71;40.19
50057;BME280;36875;49.468;11.200;2023-03-22T06:10:19;97649.34;;;19.70;40.06
50057;BME280;36875;49.468;11.200;2023-03-22T06:12:45;97645.81;;;19.69;39.97
50057;BME280;36875;49.468;11.200;2023-03-22T06:15:12;97648.56;;;19.69;40.47
50057;BME280;36875;49.468;11.200;2023-03-22T06:17:37;97642.31;;;19.69;40.50
50057;BME280;36875;49.468;11.200;2023-03-22T06:20:03;97645.03;;;19.69;40.21
50057;BME280;36875;49.468;11.200;2023-03-22T06:22:36;97643.59;;;19.71;40.17
50057;BME280;36875;49.468;11.200;2023-03-22T06:25:01;97645.22;;;19.72;40.61
50057;BME280;36875;49.468;11.200;2023-03-22T06:27:28;97640.84;;;19.71;40.36
50057;BME280;36875;49.468;11.200;2023-03-22T06:29:53;97643.59;;;19.71;40.45
50057;BME280;36875;49.468;11.200;2023-03-22T06:32:20;97639.88;;;19.67;40.29
50057;BME280;36875;49.468;11.200;2023-03-22T06:34:50;97643.59;;;19.71;40.54
50057;BME280;36875;49.468;11.200;2023-03-22T06:37:16;97641.47;;;19.68;40.31
50057;BME280;36875;49.468;11.200;2023-03-22T06:39:42;97643.09;;;19.69;40.35
50057;BME280;36875;49.468;11.200;2023-03-22T06:42:07;97644.69;;;19.70;40.68
50057;BME280;36875;49.468;11.200;2023-03-22T06:44:33;97639.22;;;19.70;40.34
50057;BME280;36875;49.468;11.200;2023-03-22T06:46:58;97637.94;;;19.68;40.65
50057;BME280;36875;49.468;11.200;2023-03-22T06:49:25;97633.09;;;19.64;40.96
50057;BME280;36875;49.468;11.200;2023-03-22T06:51:52;97637.47;;;19.65;40.58
50057;BME280;36875;49.468;11.200;2023-03-22T06:54:17;97634.25;;;19.63;40.92
50057;BME280;36875;49.468;11.200;2023-03-22T06:56:43;97638.38;;;19.61;40.67
50057;BME280;36875;49.468;11.200;2023-03-22T06:59:08;97632.94;;;19.61;41.12
50057;BME280;36875;49.468;11.200;2023-03-22T07:01:34;97638.38;;;19.61;41.12
50057;BME280;36875;49.468;11.200;2023-03-22T07:03:59;97642.75;;;19.62;41.16
50057;BME280;36875;49.468;11.200;2023-03-22T07:06:26;97643.84;;;19.61;41.41
50057;BME280;36875;49.468;11.200;2023-03-22T07:08:52;97636.94;;;19.55;41.24
50057;BME280;36875;49.468;11.200;2023-03-22T07:11:17;97636.31;;;19.58;41.23
50057;BME280;36875;49.468;11.200;2023-03-22T07:13:43;97636.31;;;19.58;41.41
50057;BME280;36875;49.468;11.200;2023-03-22T07:16:09;97642.56;;;19.58;41.40
50057;BME280;36875;49.468;11.200;2023-03-22T07:18:35;97644.50;;;19.58;41.48
50057;BME280;36875;49.468;11.200;2023-03-22T07:21:01;97647.22;;;19.58;41.63
50057;BME280;36875;49.468;11.200;2023-03-22T07:23:28;97649.13;;;19.57;41.67
50057;BME280;36875;49.468;11.200;2023-03-22T07:25:53;97653.00;;;19.56;41.86
50057;BME280;36875;49.468;11.200;2023-03-22T07:28:20;97650.56;;;19.55;41.49
50057;BME280;36875;49.468;11.200;2023-03-22T07:30:46;97654.94;;;19.56;41.74
50057;BME280;36875;49.468;11.200;2023-03-22T07:33:12;97647.84;;;19.55;42.04
50057;BME280;36875;49.468;11.200;2023-03-22T07:35:37;97647.06;;;19.54;41.94
50057;BME280;36875;49.468;11.200;2023-03-22T07:38:03;97655.25;;;19.54;42.12
50057;BME280;36875;49.468;11.200;2023-03-22T07:40:31;97656.03;;;19.55;42.04
50057;BME280;36875;49.468;11.200;2023-03-22T07:42:56;97661.50;;;19.55;41.95
50057;BME280;36875;49.468;11.200;2023-03-22T07:45:23;97647.84;;;19.55;42.36
50057;BME280;36875;49.468;11.200;2023-03-22T07:47:49;97645.13;;;19.55;42.24
50057;BME280;36875;49.468;11.200;2023-03-22T07:50:15;97646.56;;;19.52;42.27
50057;BME280;36875;49.468;11.200;2023-03-22T07:52:42;97645.13;;;19.55;42.44
50057;BME280;36875;49.468;11.200;2023-03-22T07:55:09;97647.84;;;19.55;42.71
50057;BME280;36875;49.468;11.200;2023-03-22T07:57:36;97642.69;;;19.53;42.64
50057;BME280;36875;49.468;11.200;2023-03-22T08:00:03;97636.13;;;19.54;42.76
50057;BME280;36875;49.468;11.200;2023-03-22T08:02:29;97639.66;;;19.55;42.93
50057;BME280;36875;49.468;11.200;2023-03-22T08:04:54;97629.88;;;19.54;42.79
50057;BME280;36875;49.468;11.200;2023-03-22T08:07:20;97626.31;;;19.53;43.09
50057;BME280;36875;49.468;11.200;2023-03-22T08:09:46;97624.56;;;19.49;42.97
50057;BME280;36875;49.468;11.200;2023-03-22T08:12:12;97625.53;;;19.53;43.00
50057;BME280;36875;49.468;11.200;2023-03-22T08:14:39;97627.47;;;19.52;42.81
50057;BME280;36875;49.468;11.200;2023-03-22T08:17:05;97633.41;;;19.54;43.34
50057;BME280;36875;49.468;11.200;2023-03-22T08:19:31;97634.19;;;19.55;43.31
50057;BME280;36875;49.468;11.200;2023-03-22T08:21:57;97631.47;;;19.55;43.24
50057;BME280;36875;49.468;11.200;2023-03-22T08:24:23;97639.66;;;19.55;43.18
50057;BME280;36875;49.468;11.200;2023-03-22T08:26:49;97633.41;;;19.54;43.46
50057;BME280;36875;49.468;11.200;2023-03-22T08:29:15;97635.00;;;19.55;43.49
50057;BME280;36875;49.468;11.200;2023-03-22T08:31:42;97639.66;;;19.55;43.60
50057;BME280;36875;49.468;11.200;2023-03-22T08:34:07;97636.63;;;19.56;43.54
50057;BME280;36875;49.468;11.200;2023-03-22T08:36:33;97636.31;;;19.58;43.81
50057;BME280;36875;49.468;11.200;2023-03-22T08:38:59;97631.97;;;19.57;43.45
50057;BME280;36875;49.468;11.200;2023-03-22T08:41:25;97624.56;;;19.57;43.99
50057;BME280;36875;49.468;11.200;2023-03-22T08:43:51;97630.38;;;19.56;43.82
50057;BME280;36875;49.468;11.200;2023-03-22T08:46:16;97622.66;;;19.58;44.21
50057;BME280;36875;49.468;11.200;2023-03-22T08:48:43;97626.50;;;19.57;43.69
50057;BME280;36875;49.468;11.200;2023-03-22T08:51:14;97626.50;;;19.57;44.00
50057;BME280;36875;49.468;11.200;2023-03-22T08:53:43;97623.78;;;19.57;43.85
50057;BME280;36875;49.468;11.200;2023-03-22T08:56:08;97626.50;;;19.57;43.94
50057;BME280;36875;49.468;11.200;2023-03-22T08:58:34;97625.69;;;19.56;43.77
50057;BME280;36875;49.468;11.200;2023-03-22T09:01:00;97615.91;;;19.55;44.19
50057;BME280;36875;49.468;11.200;2023-03-22T09:03:26;97622.19;;;19.56;44.10
50057;BME280;36875;49.468;11.200;2023-03-22T09:05:53;97618.31;;;19.57;43.83
50057;BME280;36875;49.468;11.200;2023-03-22T09:08:18;97615.59;;;19.57;44.12
50057;BME280;36875;49.468;11.200;2023-03-22T09:10:44;97614.00;;;19.56;44.14
50057;BME280;36875;49.468;11.200;2023-03-22T09:13:12;97614.00;;;19.56;44.14
50057;BME280;36875;49.468;11.200;2023-03-22T09:15:39;97617.50;;;19.56;44.03
50057;BME280;36875;49.468;11.200;2023-03-22T09:18:04;97614.78;;;19.56;44.03
50057;BME280;36875;49.468;11.200;2023-03-22T09:20:30;97608.53;;;19.56;44.39
50057;BME280;36875;49.468;11.200;2023-03-22T09:22:57;97611.75;;;19.58;44.19
50057;BME280;36875;49.468;11.200;2023-03-22T09:25:22;97609.31;;;19.56;44.19
50057;BME280;36875;49.468;11.200;2023-03-22T09:27:48;97610.91;;;19.57;43.96
50057;BME280;36875;49.468;11.200;2023-03-22T09:30:14;97594.53;;;19.57;44.09
50057;BME280;36875;49.468;11.200;2023-03-22T09:32:39;97600.00;;;19.57;44.02
50057;BME280;36875;49.468;11.200;2023-03-22T09:35:06;97605.47;;;19.57;44.31
50057;BME280;36875;49.468;11.200;2023-03-22T09:37:31;97600.81;;;19.58;44.00
50057;BME280;36875;49.468;11.200;2023-03-22T09:39:59;97603.56;;;19.58;43.91
50057;BME280;36875;49.468;11.200;2023-03-22T09:42:31;97598.09;;;19.58;43.83
50057;BME280;36875;49.468;11.200;2023-03-22T09:44:59;97600.81;;;19.58;44.24
50057;BME280;36875;49.468;11.200;2023-03-22T09:47:30;97600.81;;;19.58;43.84
50057;BME280;36875;49.468;11.200;2023-03-22T09:50:04;97606.28;;;19.58;43.95
50057;BME280;36875;49.468;11.200;2023-03-22T09:52:31;97606.28;;;19.58;44.33
50057;BME280;36875;49.468;11.200;2023-03-22T09:54:58;97591.66;;;19.54;44.26
50057;BME280;36875;49.468;11.200;2023-03-22T09:57:29;97589.91;;;19.58;44.05
50057;BME280;36875;49.468;11.200;2023-03-22T10:00:03;97589.91;;;19.58;44.12
50057;BME280;36875;49.468;11.200;2023-03-22T10:02:42;97587.97;;;19.58;43.99
50057;BME280;36875;49.468;11.200;2023-03-22T10:05:13;97593.13;;;19.60;43.81
50057;BME280;36875;49.468;11.200;2023-03-22T10:10:43;97582.22;;;19.60;44.27
50057;BME280;36875;49.468;11.200;2023-03-22T10:13:15;97574.00;;;19.60;43.82
50057;BME280;36875;49.468;11.200;2023-03-22T10:15:45;97570.81;;;19.58;43.81
50057;BME280;36875;49.468;11.200;2023-03-22T10:18:15;97562.63;;;19.58;43.99
50057;BME280;36875;49.468;11.200;2023-03-22T10:20:48;97563.09;;;19.60;43.71
50057;BME280;36875;49.468;11.200;2023-03-22T10:23:19;97568.88;;;19.58;43.95
50057;BME280;36875;49.468;11.200;2023-03-22T10:25:46;97565.03;;;19.59;44.07
50057;BME280;36875;49.468;11.200;2023-03-22T10:28:18;97554.13;;;19.59;43.70
50057;BME280;36875;49.468;11.200;2023-03-22T10:30:46;97565.03;;;19.59;44.07
50057;BME280;36875;49.468;11.200;2023-03-22T10:33:17;97560.38;;;19.60;43.86
50057;BME280;36875;49.468;11.200;2023-03-22T10:35:44;97552.34;;;19.63;43.71
50057;BME280;36875;49.468;11.200;2023-03-22T10:38:18;97556.84;;;19.68;43.63
50057;BME280;36875;49.468;11.200;2023-03-22T10:40:47;97550.59;;;19.68;43.71
50057;BME280;36875;49.468;11.200;2023-03-22T10:43:19;97560.41;;;19.69;44.16
50057;BME280;36875;49.468;11.200;2023-03-22T10:45:45;97558.47;;;19.69;43.72
50057;BME280;36875;49.468;11.200;2023-03-22T10:48:19;97559.47;;;19.73;43.50
50057;BME280;36875;49.468;11.200;2023-03-22T10:50:48;97563.16;;;19.77;43.71
50057;BME280;36875;49.468;11.200;2023-03-22T10:53:20;97552.59;;;19.76;43.99
50057;BME280;36875;49.468;11.200;2023-03-22T10:55:49;97543.25;;;19.77;44.29
50057;BME280;36875;49.468;11.200;2023-03-22T10:58:18;97541.66;;;19.76;44.70
50057;BME280;36875;49.468;11.200;2023-03-22T11:00:45;97549.50;;;19.77;44.85
50057;BME280;36875;49.468;11.200;2023-03-22T11:03:24;97541.31;;;19.77;44.61
50057;BME280;36875;49.468;11.200;2023-03-22T11:05:57;97544.22;;;19.81;44.65
50057;BME280;36875;49.468;11.200;2023-03-22T11:08:23;97541.97;;;19.83;44.83
50057;BME280;36875;49.468;11.200;2023-03-22T11:10:49;97543.09;;;19.82;44.96
50057;BME280;36875;49.468;11.200;2023-03-22T11:13:18;97531.03;;;19.83;45.12
50057;BME280;36875;49.468;11.200;2023-03-22T11:15:51;97544.06;;;19.86;44.74
50057;BME280;36875;49.468;11.200;2023-03-22T11:18:18;97533.78;;;19.83;44.78
50057;BME280;36875;49.468;11.200;2023-03-22T11:20:53;97530.56;;;19.81;44.46
50057;BME280;36875;49.468;11.200;2023-03-22T11:23:20;97516.91;;;19.81;44.38
50057;BME280;36875;49.468;11.200;2023-03-22T11:25:48;97510.81;;;19.84;44.68
50057;BME280;36875;49.468;11.200;2023-03-22T11:28:18;97517.06;;;19.84;44.84
50057;BME280;36875;49.468;11.200;2023-03-22T11:30:57;97514.81;;;19.87;44.74
50057;BME280;36875;49.468;11.200;2023-03-22T11:33:23;97521.59;;;19.89;44.85
50057;BME280;36875;49.468;11.200;2023-03-22T11:35:53;97518.03;;;19.89;44.85
50057;BME280;36875;49.468;11.200;2023-03-22T11:38:24;97516.63;;;19.91;45.08
50057;BME280;36875;49.468;11.200;2023-03-22T11:40:54;97517.41;;;19.92;44.95
50057;BME280;36875;49.468;11.200;2023-03-22T11:43:23;97510.53;;;19.94;44.95
50057;BME280;36875;49.468;11.200;2023-03-22T11:45:51;97501.19;;;19.95;45.12
50057;BME280;36875;49.468;11.200;2023-03-22T11:48:21;97491.41;;;19.94;44.75
50057;BME280;36875;49.468;11.200;2023-03-22T11:50:48;97498.78;;;19.94;45.06
50057;BME280;36875;49.468;11.200;2023-03-22T11:53:17;97490.25;;;19.95;45.10
50057;BME280;36875;49.468;11.200;2023-03-22T11:55:45;97496.53;;;19.96;45.21
50057;BME280;36875;49.468;11.200;2023-03-22T11:58:25;97486.41;;;19.96;45.10
50057;BME280;36875;49.468;11.200;2023-03-22T12:00:52;97488.84;;;19.98;44.99
50057;BME280;36875;49.468;11.200;2023-03-22T12:03:23;97483.69;;;19.96;45.18
50057;BME280;36875;49.468;11.200;2023-03-22T12:05:50;97498.63;;;19.99;45.09
50057;BME280;36875;49.468;11.200;2023-03-22T12:08:20;97485.75;;;19.99;45.05
50057;BME280;36875;49.468;11.200;2023-03-22T12:10:52;97484.34;;;20.02;44.99
50057;BME280;36875;49.468;11.200;2023-03-22T12:13:25;97484.81;;;20.04;45.06
50057;BME280;36875;49.468;11.200;2023-03-22T12:15:55;97483.50;;;20.01;44.94
50057;BME280;36875;49.468;11.200;2023-03-22T12:18:25;97480.94;;;20.05;44.77
50057;BME280;36875;49.468;11.200;2023-03-22T12:20:55;97470.69;;;20.02;45.06
50057;BME280;36875;49.468;11.200;2023-03-22T12:23:22;97472.75;;;20.05;45.02
50057;BME280;36875;49.468;11.200;2023-03-22T12:25:52;97469.53;;;20.03;44.85
50057;BME280;36875;49.468;11.200;2023-03-22T12:28:21;97475.16;;;20.07;44.92
50057;BME280;36875;49.468;11.200;2023-03-22T12:30:53;97474.19;;;20.02;45.33
50057;BME280;36875;49.468;11.200;2023-03-22T12:33:21;97477.25;;;20.01;45.46
50057;BME280;36875;49.468;11.200;2023-03-22T12:35:50;97467.00;;;19.98;45.06
50057;BME280;36875;49.468;11.200;2023-03-22T12:38:25;97467.94;;;20.02;45.49
50057;BME280;36875;49.468;11.200;2023-03-22T12:40:53;97467.94;;;20.02;45.59
50057;BME280;36875;49.468;11.200;2023-03-22T12:43:34;97451.22;;;19.95;45.22
50057;BME280;36875;49.468;11.200;2023-03-22T12:46:04;97455.72;;;19.99;45.38
50057;BME280;36875;49.468;11.200;2023-03-22T12:48:37;97458.59;;;20.03;45.62
50057;BME280;36875;49.468;11.200;2023-03-22T12:51:06;97455.25;;;19.97;45.59
50057;BME280;36875;49.468;11.200;2023-03-22T12:53:34;97458.59;;;20.03;45.55
50057;BME280;36875;49.468;11.200;2023-03-22T12:56:08;97450.41;;;20.03;45.15
50057;BME280;36875;49.468;11.200;2023-03-22T12:58:34;97447.69;;;20.03;45.30
50057;BME280;36875;49.468;11.200;2023-03-22T13:01:18;97442.69;;;20.05;44.91